Pagrindinis puslapis
METAR-TAF:

METAR-TAF

Oro uostai :

Napakiak, Aliaska, Jungtinės Amerikos Valstijos

platuma: 60-41-25N, ilguma: 161-58-43W, Aukštis: 5 m

Dabartinis oras

Ataskaita buvo paskelbta 16 valandos ir 5 minutes, ne 11:04 UTC
Vėjas 11 kt iš Vakarų/Pietvakarių su gūsio iki 17 kt
Temperatūra 8°C
Drėgmė 93%
Slėgis 997 hPa
Matomumas: 16.1 km
Mažai debesys ne aukštis 700 ft
Su prošvaistėmis ne aukštis 4800 ft
Apsiniaukę ne aukštis 11000 ft

METAR: PANA 181104Z AUTO 24011G17KT 10SM FEW007 BKN048 OVC110 08/07 A2943 RMK AO2 PWINO $

Laikas: 19:09 (03:09 UTC)


TAF: trūkstamas

Orai ataskaitas ir orų prognozės (METAR, TAF).

turimą stotys yra geltonos ir raudonos taškus žemėlapyje.

Perkelti pele per norėdami pamatyti stoties vardą.

Tada spustelėkite, norėdami matyti oro stebėjimo ir prognozės.

Norėdami pakeisti žemėlapį: spustelėkite ant žalios mygtukų su juodo kryžiaus žemyn,; žalią mygtuką su brūkšneliu, jei norite nutolinti; arba žalių rodyklių gretimoms žemėlapius.


METAR-TAF: